Flight Track Log - Related Links

Times and Time Zones

All times are in EDT time to prevent confusion due to time zone crossing. See the IBE6586 flight status page for this flight to view local times or setup timezone preferences in your user account.

Time Position Orientation Groundspeed Altitude Reporting Facility
EDT Latitude Longitude Course Direction KTS MPH feet Rate Location/Type
Thu 08:29:00 PM 8.2871 -70.2220 54° Northeast  Level FlightAware Approximate
Thu 08:30:00 PM 8.3695 -70.1080 54° Northeast  Level FlightAware Approximate
Thu 08:31:00 PM 8.4519 -69.9940 54° Northeast  Level FlightAware Approximate
Thu 08:32:00 PM 8.5342 -69.8799 54° Northeast  Level FlightAware Approximate
Thu 08:33:00 PM 8.6165 -69.7657 54° Northeast  Level FlightAware Approximate
Thu 08:34:00 PM 8.6988 -69.6515 54° Northeast  Level FlightAware Approximate
Thu 08:35:00 PM 8.7811 -69.5373 54° Northeast  Level FlightAware Approximate
Thu 08:36:00 PM 8.8633 -69.4230 54° Northeast  Level FlightAware Approximate
Thu 08:37:00 PM 8.9455 -69.3086 54° Northeast  Level FlightAware Approximate
Thu 08:38:00 PM 9.0276 -69.1942 54° Northeast  Level FlightAware Approximate
Thu 08:39:00 PM 9.1097 -69.0798 54° Northeast  Level FlightAware Approximate
Thu 08:40:00 PM 9.1918 -68.9652 54° Northeast  Level FlightAware Approximate
Thu 08:41:00 PM 9.2738 -68.8507 54° Northeast  Level FlightAware Approximate
Thu 08:42:00 PM 9.3558 -68.7361 54° Northeast  Level FlightAware Approximate
Thu 08:43:00 PM 9.4378 -68.6214 54° Northeast  Level FlightAware Approximate
Thu 08:44:00 PM 9.5197 -68.5067 54° Northeast  Level FlightAware Approximate
Thu 08:45:00 PM 9.6016 -68.3919 54° Northeast  Level FlightAware Approximate
Thu 08:46:00 PM 9.6834 -68.2770 54° Northeast  Level FlightAware Approximate
Thu 08:47:00 PM 9.7653 -68.1621 54° Northeast  Level FlightAware Approximate
Thu 08:48:00 PM 9.8470 -68.0472 54° Northeast  Level FlightAware Approximate
Thu 08:49:00 PM 9.9288 -67.9322 54° Northeast  Level FlightAware Approximate
Thu 08:50:00 PM 10.0105 -67.8171 54° Northeast  Level FlightAware Approximate
Thu 08:51:00 PM 10.0921 -67.7020 54° Northeast  Level FlightAware Approximate
Thu 08:52:00 PM 10.1737 -67.5868 54° Northeast  Level FlightAware Approximate
Thu 08:53:00 PM 10.2553 -67.4716 54° Northeast  Level FlightAware Approximate
Thu 08:54:00 PM 10.3368 -67.3563 54° Northeast  Level FlightAware Approximate
Thu 08:55:00 PM 10.4183 -67.2409 54° Northeast  Level FlightAware Approximate
Thu 08:56:00 PM 10.4998 -67.1255 54° Northeast  Level FlightAware Approximate
Thu 08:57:00 PM 10.5812 -67.0100 54° Northeast  Level FlightAware Approximate
Thu 08:58:00 PM 10.6791 -66.9093 43° Northeast  Level FlightAware Approximate
Thu 08:59:00 PM 10.7818 -66.8130 43° Northeast  Level FlightAware Approximate
Thu 09:00:00 PM 10.8846 -66.7167 43° Northeast  Level FlightAware Approximate
Thu 09:01:00 PM 10.9873 -66.6202 43° Northeast  Level FlightAware Approximate
Thu 09:02:00 PM 11.0900 -66.5238 43° Northeast  Level FlightAware Approximate
Thu 09:03:00 PM 11.1927 -66.4272 43° Northeast  Level FlightAware Approximate
Thu 09:04:00 PM 11.2954 -66.3306 43° Northeast  Level FlightAware Approximate
Thu 09:05:00 PM 11.3980 -66.2339 43° Northeast  Level FlightAware Approximate
Thu 09:06:00 PM 11.5005 -66.1371 43° Northeast  Level FlightAware Approximate
Thu 09:07:00 PM 11.6031 -66.0403 43° Northeast  Level FlightAware Approximate
Thu 09:08:00 PM 11.7056 -65.9434 43° Northeast  Level FlightAware Approximate
Thu 09:09:00 PM 11.8081 -65.8464 43° Northeast  Level FlightAware Approximate
Thu 09:10:00 PM 11.9105 -65.7493 43° Northeast  Level FlightAware Approximate
Thu 09:11:00 PM 12.0129 -65.6522 43° Northeast  Level FlightAware Approximate
Thu 09:12:00 PM 12.1153 -65.5550 43° Northeast  Level FlightAware Approximate
Thu 09:13:00 PM 12.2176 -65.4577 43° Northeast  Level FlightAware Approximate
Thu 09:14:00 PM 12.3199 -65.3604 43° Northeast  Level FlightAware Approximate
Thu 09:15:00 PM 12.4222 -65.2629 43° Northeast  Level FlightAware Approximate
Thu 09:16:00 PM 12.5245 -65.1654 43° Northeast  Level FlightAware Approximate
Thu 09:17:00 PM 12.6267 -65.0678 43° Northeast  Level FlightAware Approximate
Thu 09:18:00 PM 12.7288 -64.9702 43° Northeast  Level FlightAware Approximate
Thu 09:19:00 PM 12.8310 -64.8724 43° Northeast  Level FlightAware Approximate
Thu 09:20:00 PM 12.9331 -64.7746 43° Northeast  Level FlightAware Approximate
Thu 09:21:00 PM 13.0351 -64.6767 43° Northeast  Level FlightAware Approximate
Thu 09:22:00 PM 13.1372 -64.5787 43° Northeast  Level FlightAware Approximate
Thu 09:23:00 PM 13.2392 -64.4807 43° Northeast  Level FlightAware Approximate
Thu 09:24:00 PM 13.3411 -64.3825 43° Northeast  Level FlightAware Approximate
Thu 09:25:00 PM 13.4430 -64.2843 43° Northeast  Level FlightAware Approximate
Thu 09:26:00 PM 13.5449 -64.1860 43° Northeast  Level FlightAware Approximate
Thu 09:27:00 PM 13.6468 -64.0876 43° Northeast  Level FlightAware Approximate
Thu 09:28:00 PM 13.7487 -63.9893 43° Northeast  Level FlightAware Approximate
Thu 09:29:00 PM 13.8505 -63.8908 43° Northeast  Level FlightAware Approximate
Thu 09:30:00 PM 13.9524 -63.7923 43° Northeast  Level FlightAware Approximate
Thu 09:31:00 PM 14.0541 -63.6937 43° Northeast  Level FlightAware Approximate
Thu 09:31:17 PM 12.5010 -65.1980 43° Northeast 500 575 35,000  Level FlightAware ADS-B
Thu 09:31:52 PM 12.5570 -65.1450 43° Northeast 502 578 35,000  Level FlightAware ADS-B
Thu 09:32:00 PM 14.1559 -63.5950 43° Northeast  Level FlightAware Approximate
Thu 09:32:37 PM 12.6260 -65.0820 42° Northeast 502 578 35,000  Level FlightAware ADS-B
Thu 09:33:32 PM 12.7250 -64.9880 43° Northeast 502 578 35,000  Level FlightAware ADS-B
Thu 09:34:12 PM 12.7830 -64.9340 42° Northeast 502 578 35,000  Level FlightAware ADS-B
Thu 09:34:52 PM 12.8420 -64.8800 42° Northeast 502 578 35,000  Level FlightAware ADS-B
Thu 09:35:42 PM 12.9150 -64.8120 42° Northeast 502 578 35,000  Level FlightAware ADS-B
Thu 09:36:22 PM 13.0230 -64.7050 44° Northeast 505 581 35,000  Level FlightAware ADS-B
Thu 09:36:57 PM 13.0760 -64.6530 44° Northeast 507 583 35,000  Level FlightAware ADS-B
Thu 09:37:42 PM 13.1450 -64.5880 43° Northeast 507 583 35,000  Level FlightAware ADS-B
Thu 09:38:22 PM 13.2140 -64.5210 43° Northeast 507 583 35,000  Level FlightAware ADS-B
Thu 09:39:07 PM 13.2840 -64.4530 43° Northeast 507 583 35,000  Level FlightAware ADS-B
Thu 09:39:47 PM 13.2550 -64.4810 223° Southwest 507 583 35,000  Level FlightAware ADS-B
Thu 09:40:37 PM 13.4490 -64.2940 43° Northeast 507 583 35,000  Level FlightAware ADS-B
Thu 09:41:17 PM 13.5190 -64.2290 42° Northeast 508 585 35,000  Level FlightAware ADS-B
Thu 09:41:52 PM 13.5870 -64.1660 42° Northeast 510 587 35,000  Level FlightAware ADS-B
Thu 09:42:27 PM 13.6420 -64.1150 42° Northeast 510 587 35,000 975 Level FlightAware ADS-B
Thu 09:43:12 PM 13.7260 -64.0330 43° Northeast 507 583 36,300 1,333 Climbing FlightAware ADS-B
Thu 09:43:57 PM 13.8000 -63.9620 43° Northeast 505 581 37,000 494 Climbing FlightAware ADS-B
Thu 09:44:37 PM 13.8690 -63.8940 44° Northeast 505 581 37,000  Level FlightAware ADS-B
Thu 09:45:17 PM 13.9380 -63.8280 43° Northeast 505 581 37,000  Level FlightAware ADS-B
Thu 09:46:02 PM 14.0110 -63.7570 43° Northeast 506 582 37,000  Level FlightAware ADS-B
Thu 09:46:42 PM 14.0850 -63.6850 43° Northeast 507 583 37,000  Level FlightAware ADS-B
Thu 09:47:22 PM 14.1520 -63.6210 43° Northeast 507 583 37,000  Level FlightAware ADS-B
Thu 09:48:07 PM 14.2300 -63.5450 43° Northeast 507 583 37,000  Level FlightAware ADS-B
Thu 09:48:47 PM 14.2990 -63.4780 43° Northeast 504 580 37,000  Level FlightAware ADS-B
Thu 09:49:32 PM 14.3740 -63.4040 44° Northeast 502 578 37,000  Level FlightAware ADS-B
Thu 09:50:12 PM 14.4440 -63.3370 43° Northeast 500 575 37,000  Level FlightAware ADS-B
Thu 09:50:57 PM 14.5190 -63.2630 44° Northeast 502 578 37,000  Level FlightAware ADS-B
Thu 09:51:37 PM 14.5850 -63.1990 43° Northeast 505 581 37,000  Level FlightAware ADS-B
Thu 09:52:17 PM 14.6550 -63.1310 43° Northeast 507 583 37,000  Level FlightAware ADS-B
Thu 09:53:02 PM 14.7330 -63.0540 44° Northeast 509 586 37,000  Level FlightAware ADS-B
Thu 09:53:42 PM 14.8000 -62.9890 43° Northeast 509 586 37,000  Level FlightAware ADS-B
Thu 09:54:27 PM 14.8730 -62.9170 44° Northeast 507 583 37,000  Level FlightAware ADS-B
Thu 09:55:07 PM 14.9440 -62.8480 43° Northeast 507 583 37,000  Level FlightAware ADS-B
Thu 09:56:32 PM 15.0880 -62.7070 43° Northeast 511 588 37,000  Level FlightAware ADS-B
Thu 09:57:52 PM 15.2290 -62.5680 44° Northeast 509 586 37,000  Level FlightAware ADS-B
Thu 09:58:37 PM 15.2960 -62.5030 43° Northeast 510 587 37,000  Level FlightAware ADS-B
Thu 10:00:42 PM 15.5140 -62.2870 44° Northeast 512 589 37,000  Level FlightAware ADS-B
Thu 10:01:22 PM 15.5810 -62.2210 43° Northeast 512 589 37,000  Level FlightAware ADS-B
Thu 10:02:07 PM 15.6670 -62.1350 44° Northeast 508 585 37,000  Level FlightAware ADS-B
Thu 10:02:47 PM 15.6790 -62.1240 41° Northeast 509 586 37,000  Level FlightAware ADS-B
Thu 10:03:32 PM 15.7580 -62.0450 44° Northeast 509 586 37,000  Level FlightAware ADS-B
Thu 10:04:07 PM 15.8720 -61.9320 44° Northeast 512 589 37,000  Level FlightAware ADS-B
Thu 10:04:47 PM 15.9390 -61.8650 44° Northeast 512 589 37,000  Level FlightAware ADS-B
Thu 10:05:42 PM 15.9810 -61.8230 44° Northeast 512 589 37,000  Level FlightAware ADS-B
Thu 10:06:32 PM 16.0700 -61.7340 44° Northeast 513 590 37,000  Level FlightAware ADS-B
Thu 10:07:17 PM 16.1480 -61.6570 43° Northeast 512 589 37,000  Level FlightAware ADS-B
Thu 10:07:57 PM 16.2110 -61.5940 44° Northeast 511 588 37,000  Level FlightAware ADS-B
Thu 10:08:37 PM 16.2880 -61.5190 43° Northeast 506 582 37,000  Level FlightAware ADS-B
Thu 10:09:37 PM 16.3860 -61.4330 40° Northeast 507 583 37,000  Level FlightAware ADS-B
Thu 10:10:32 PM 16.4960 -61.3370 40° Northeast 512 589 37,000  Level FlightAware ADS-B
Thu 10:11:27 PM 16.5940 -61.2510 40° Northeast 512 589 37,000  Level FlightAware ADS-B
Thu 10:12:07 PM 16.6700 -61.1840 40° Northeast 512 589 37,000  Level FlightAware ADS-B
Thu 10:12:52 PM 16.7400 -61.1220 40° Northeast 512 589 37,000  Level FlightAware ADS-B
Thu 10:13:27 PM 16.8170 -61.0540 40° Northeast 511 588 37,000  Level FlightAware ADS-B
Thu 10:14:07 PM 16.8850 -60.9930 41° Northeast 510 587 37,000  Level FlightAware ADS-B
Thu 10:14:52 PM 16.9710 -60.9180 40° Northeast 512 589 37,000  Level FlightAware ADS-B
Thu 10:15:37 PM 17.0550 -60.8440 40° Northeast 515 593 37,000  Level FlightAware ADS-B
Thu 10:16:22 PM 17.1350 -60.7730 40° Northeast 514 592 37,000  Level FlightAware ADS-B
Thu 10:16:57 PM 17.1960 -60.7180 41° Northeast 514 592 37,000  Level FlightAware ADS-B
Thu 10:17:37 PM 17.2710 -60.6520 40° Northeast 512 589 37,000  Level FlightAware ADS-B
Thu 10:18:27 PM 17.3630 -60.5700 40° Northeast 510 587 37,000  Level FlightAware ADS-B
Thu 10:19:07 PM 17.4340 -60.5060 41° Northeast 512 589 37,000  Level FlightAware ADS-B
Thu 10:19:42 PM 17.4980 -60.4490 40° Northeast 511 588 37,000  Level FlightAware ADS-B
Thu 10:20:27 PM 17.5730 -60.3830 40° Northeast 511 588 37,000  Level FlightAware ADS-B
Thu 10:21:17 PM 17.6680 -60.2970 41° Northeast 510 587 37,000  Level FlightAware ADS-B
Thu 10:22:12 PM 17.7510 -60.2030 47° Northeast 515 593 37,000  Level FlightAware ADS-B
Thu 10:22:52 PM 17.8130 -60.1250 50° Northeast 514 592 37,000  Level FlightAware ADS-B
Thu 10:23:02 PM 17.9000 -60.1000 44° Northeast 521 600 37,000  Level New York Oceanic (ODAPS)
Thu 10:23:32 PM 17.8800 -60.0540 45° Northeast 513 590 37,000  Level FlightAware ADS-B
Thu 10:24:00 PM 18.0000 -59.9833 66° East 513 590 37,000  Level New York Oceanic (ODAPS)
Thu 10:24:17 PM 17.9530 -59.9700 48° Northeast 516 594 37,000  Level FlightAware ADS-B
Thu 10:25:07 PM 18.0190 -59.8610 58° Northeast 518 596 37,000  Level FlightAware ADS-B
Thu 10:25:52 PM 18.0630 -59.7730 62° Northeast 518 596 37,000  Level FlightAware ADS-B
Thu 10:26:32 PM 18.1020 -59.6980 61° Northeast 518 596 37,000  Level FlightAware ADS-B
Thu 10:27:12 PM 18.1400 -59.6220 62° Northeast 518 596 37,000  Level FlightAware ADS-B
Thu 10:28:02 PM 18.1880 -59.5270 62° Northeast 518 596 37,000  Level FlightAware ADS-B
Thu 10:29:00 PM 18.2857 -59.3127 66° East 521 600 37,000  Level FlightAware Transoceanic
Thu 10:30:00 PM 18.3425 -59.1610 66° East 513 590 37,000  Level FlightAware Transoceanic
Thu 10:30:02 PM 18.3020 -59.3000 66° East 518 596 37,000  Level FlightAware ADS-B
Thu 10:30:42 PM 18.3410 -59.2240 62° Northeast 518 596 37,000  Level FlightAware ADS-B
Thu 10:31:32 PM 18.3880 -59.1300 62° Northeast 518 596 37,000  Level FlightAware ADS-B
Thu 10:32:12 PM 18.4270 -59.0540 62° Northeast 518 596 37,000  Level FlightAware ADS-B
Thu 10:32:52 PM 18.4650 -58.9780 62° Northeast 518 596 37,000  Level FlightAware ADS-B
Thu 10:33:32 PM 18.5030 -58.9020 62° Northeast 518 596 37,000  Level FlightAware ADS-B
Thu 10:34:12 PM 18.5410 -58.8260 62° Northeast 518 596 37,000  Level FlightAware ADS-B
Thu 10:35:02 PM 18.5890 -58.7310 62° Northeast 518 596 37,000  Level FlightAware ADS-B
Thu 10:37:00 PM 18.7568 -58.4989 67° East  Level Estimated
Thu 10:38:00 PM 18.8036 -58.3589 71° East  Level FlightAware Approximate
Thu 10:39:00 PM 18.8502 -58.2187 71° East  Level FlightAware Approximate
Thu 10:40:00 PM 18.8968 -58.0785 71° East  Level FlightAware Approximate
Thu 10:41:00 PM 18.9433 -57.9382 71° East  Level FlightAware Approximate
Thu 10:42:00 PM 18.9896 -57.7978 71° East  Level FlightAware Approximate
Thu 10:43:00 PM 19.0359 -57.6573 71° East  Level FlightAware Approximate
Thu 10:43:23 PM 19.1167 -57.2833 67° East 506 582 37,000  Level New York Oceanic (ODAPS)
Thu 10:44:00 PM 19.0820 -57.5168 71° East  Level FlightAware Approximate
Thu 10:45:00 PM 19.1281 -57.3762 71° East  Level FlightAware Approximate
Thu 10:46:00 PM 19.1740 -57.2355 71° East  Level FlightAware Approximate
Thu 10:47:00 PM 19.2198 -57.0947 71° East  Level FlightAware Approximate
Thu 10:48:00 PM 19.2655 -56.9539 71° East  Level FlightAware Approximate
Thu 10:49:00 PM 19.4317 -56.4803 68° East 506 582 37,000  Level FlightAware Transoceanic
Thu 10:50:00 PM 19.4839 -56.3462 68° East 506 582 37,000  Level FlightAware Transoceanic
Thu 10:51:00 PM 19.5359 -56.2119 68° East 506 582 37,000  Level FlightAware Transoceanic
Thu 10:52:00 PM 19.5879 -56.0776 68° East 506 582 37,000  Level FlightAware Transoceanic
Thu 10:53:00 PM 19.6398 -55.9432 68° East 506 582 37,000  Level FlightAware Transoceanic
Thu 10:54:00 PM 19.6915 -55.8087 68° East 506 582 37,000  Level FlightAware Transoceanic
Thu 10:55:00 PM 19.7432 -55.6742 68° East 506 582 37,000  Level FlightAware Transoceanic
Thu 10:56:00 PM 19.7948 -55.5395 68° East 506 582 37,000  Level FlightAware Transoceanic
Thu 10:57:00 PM 19.8462 -55.4048 68° East 506 582 37,000  Level FlightAware Transoceanic
Thu 10:58:00 PM 19.8976 -55.2699 68° East 506 582 37,000  Level FlightAware Transoceanic
Thu 10:59:00 PM 19.9488 -55.1350 68° East 506 582 37,000  Level FlightAware Transoceanic
Thu 10:59:40 PM 20.0000 -55.0000 56° Northeast 519 597 37,000  Level New York Oceanic (ODAPS)
Thu 11:00:00 PM 20.0000 -55.0000 56° Northeast 506 582 37,000  Level FlightAware Transoceanic
Thu 11:01:00 PM 20.0787 -54.8743 56° Northeast 506 582 37,000  Level FlightAware Transoceanic
Thu 11:02:00 PM 20.1574 -54.7485 56° Northeast 506 582 37,000  Level FlightAware Transoceanic
Thu 11:03:00 PM 20.2359 -54.6226 56° Northeast 506 582 37,000  Level FlightAware Transoceanic
Thu 11:03:43 PM 20.3333 -54.4833 57° Northeast 514 592 37,000  Level New York Oceanic (ODAPS)
Thu 11:04:00 PM 20.3144 -54.4965 56° Northeast 506 582 37,000  Level FlightAware Transoceanic
Thu 11:05:00 PM 20.4710 -54.2440 57° Northeast 519 597 37,000  Level FlightAware Transoceanic
Thu 11:06:00 PM 20.5492 -54.1175 57° Northeast 519 597 37,000  Level FlightAware Transoceanic
Thu 11:07:00 PM 20.6273 -53.9910 57° Northeast 519 597 37,000  Level FlightAware Transoceanic
Thu 11:08:00 PM 20.7053 -53.8642 57° Northeast 519 597 37,000  Level FlightAware Transoceanic
Thu 11:09:00 PM 20.7989 -53.7264 57° Northeast 514 592 37,000  Level FlightAware Transoceanic
Thu 11:10:00 PM 20.8761 -53.5998 57° Northeast 514 592 37,000  Level FlightAware Transoceanic
Thu 11:11:00 PM 20.9533 -53.4730 57° Northeast 514 592 37,000  Level FlightAware Transoceanic
Thu 11:12:00 PM 21.0304 -53.3462 57° Northeast 514 592 37,000  Level FlightAware Transoceanic
Thu 11:13:00 PM 21.1074 -53.2192 57° Northeast 514 592 37,000  Level FlightAware Transoceanic
Thu 11:14:00 PM 21.1843 -53.0920 57° Northeast 514 592 37,000  Level FlightAware Transoceanic
Thu 11:15:00 PM 21.2611 -52.9648 57° Northeast 514 592 37,000  Level FlightAware Transoceanic
Thu 11:16:00 PM 21.3378 -52.8374 57° Northeast 514 592 37,000  Level FlightAware Transoceanic
Thu 11:17:00 PM 21.4144 -52.7098 57° Northeast 514 592 37,000  Level FlightAware Transoceanic
Thu 11:18:00 PM 21.4909 -52.5822 57° Northeast 514 592 37,000  Level FlightAware Transoceanic
Thu 11:19:00 PM 21.5673 -52.4544 57° Northeast 514 592 37,000  Level FlightAware Transoceanic
Thu 11:20:00 PM 21.6436 -52.3264 57° Northeast 514 592 37,000  Level FlightAware Transoceanic
Thu 11:21:00 PM 21.7198 -52.1983 57° Northeast 514 592 37,000  Level FlightAware Transoceanic
Thu 11:22:00 PM 21.7959 -52.0701 57° Northeast 514 592 37,000  Level FlightAware Transoceanic
Thu 11:23:00 PM 21.8720 -51.9418 57° Northeast 514 592 37,000  Level FlightAware Transoceanic
Thu 11:23:53 PM 21.9167 -51.8667 58° Northeast 516 594 37,000  Level New York Oceanic (ODAPS)
Thu 11:24:00 PM 21.9479 -51.8133 58° Northeast 514 592 37,000  Level FlightAware Transoceanic
Thu 11:25:00 PM 22.0237 -51.6847 58° Northeast 514 592 37,000  Level FlightAware Transoceanic
Thu 11:26:00 PM 22.0994 -51.5560 58° Northeast 514 592 37,000  Level FlightAware Transoceanic
Thu 11:27:00 PM 22.1750 -51.4271 58° Northeast 514 592 37,000  Level FlightAware Transoceanic
Thu 11:28:00 PM 22.2505 -51.2980 58° Northeast 514 592 37,000  Level FlightAware Transoceanic
Thu 11:29:00 PM 22.3260 -51.1689 58° Northeast 514 592 37,000  Level FlightAware Transoceanic
Thu 11:30:00 PM 22.3836 -51.0702 58° Northeast 516 594 37,000  Level FlightAware Transoceanic
Thu 11:31:00 PM 22.4610 -50.9370 58° Northeast 516 594 37,000  Level FlightAware Transoceanic
Thu 11:32:00 PM 22.5383 -50.8036 58° Northeast 516 594 37,000  Level FlightAware Transoceanic
Thu 11:33:00 PM 22.6156 -50.6700 58° Northeast 516 594 37,000  Level FlightAware Transoceanic
Thu 11:34:00 PM 22.6927 -50.5363 58° Northeast 516 594 37,000  Level FlightAware Transoceanic
Thu 11:35:00 PM 22.7697 -50.4025 58° Northeast 516 594 37,000  Level FlightAware Transoceanic
Thu 11:36:00 PM 22.8466 -50.2685 58° Northeast 516 594 37,000  Level FlightAware Transoceanic
Thu 11:37:00 PM 22.9233 -50.1343 58° Northeast 516 594 37,000  Level FlightAware Transoceanic
Thu 11:38:00 PM 23.0000 -50.0000 70° East 516 594 37,000  Level FlightAware Transoceanic
Thu 11:38:03 PM 23.0000 -50.0000 70° East 531 611 37,000  Level New York Oceanic (ODAPS)
Thu 11:39:00 PM 23.0518 -49.8474 70° East 516 594 37,000  Level FlightAware Transoceanic
Thu 11:40:00 PM 23.1035 -49.6948 70° East 516 594 37,000  Level FlightAware Transoceanic
Thu 11:41:00 PM 23.1549 -49.5420 70° East 516 594 37,000  Level FlightAware Transoceanic
Thu 11:42:00 PM 23.2063 -49.3891 70° East 516 594 37,000  Level FlightAware Transoceanic
Thu 11:43:00 PM 23.2575 -49.2360 70° East 516 594 37,000  Level FlightAware Transoceanic
Thu 11:44:00 PM 23.3039 -49.0970 70° East 531 611 37,000  Level FlightAware Transoceanic
Thu 11:44:08 PM 23.3167 -49.0500 70° East 519 597 37,000  Level New York Oceanic (ODAPS)
Thu 11:45:00 PM 23.3540 -48.9461 70° East 531 611 37,000  Level FlightAware Transoceanic
Thu 11:46:00 PM 23.4040 -48.7951 70° East 531 611 37,000  Level FlightAware Transoceanic
Thu 11:47:00 PM 23.4539 -48.6440 70° East 531 611 37,000  Level FlightAware Transoceanic
Thu 11:48:00 PM 23.5036 -48.4928 70° East 531 611 37,000  Level FlightAware Transoceanic
Thu 11:49:00 PM 23.5531 -48.3414 70° East 531 611 37,000  Level FlightAware Transoceanic
Thu 11:50:00 PM 23.6089 -48.1626 70° East 519 597 37,000  Level FlightAware Transoceanic
Thu 11:51:00 PM 23.6571 -48.0143 70° East 519 597 37,000  Level FlightAware Transoceanic
Thu 11:52:00 PM 23.7052 -47.8659 71° East 519 597 37,000  Level FlightAware Transoceanic
Thu 11:53:00 PM 23.7531 -47.7174 71° East 519 597 37,000  Level FlightAware Transoceanic
Thu 11:54:00 PM 23.8009 -47.5688 71° East 519 597 37,000  Level FlightAware Transoceanic
Thu 11:55:00 PM 23.8486 -47.4201 71° East 519 597 37,000  Level FlightAware Transoceanic
Thu 11:56:00 PM 23.8960 -47.2713 71° East 519 597 37,000  Level FlightAware Transoceanic
Thu 11:57:00 PM 23.9434 -47.1223 71° East 519 597 37,000  Level FlightAware Transoceanic
Thu 11:58:00 PM 23.9906 -46.9733 71° East 519 597 37,000  Level FlightAware Transoceanic
Thu 11:59:00 PM 24.0377 -46.8242 71° East 519 597 37,000  Level FlightAware Transoceanic
Fri 12:00:00 AM 24.0846 -46.6749 71° East 519 597 37,000  Level FlightAware Transoceanic
Fri 12:01:00 AM 24.1314 -46.5255 71° East 519 597 37,000  Level FlightAware Transoceanic
Fri 12:02:00 AM 24.1780 -46.3760 71° East 519 597 37,000  Level FlightAware Transoceanic
Fri 12:03:00 AM 24.2245 -46.2264 71° East 519 597 37,000  Level FlightAware Transoceanic
Fri 12:04:00 AM 24.2709 -46.0767 71° East 519 597 37,000  Level FlightAware Transoceanic
Fri 12:04:32 AM 24.3000 -45.9833 71° East 521 600 37,000  Level New York Oceanic (ODAPS)
Fri 12:05:00 AM 24.3171 -45.9269 71° East 519 597 37,000  Level FlightAware Transoceanic
Fri 12:06:00 AM 24.3631 -45.7770 71° East 519 597 37,000  Level FlightAware Transoceanic
Fri 12:07:00 AM 24.4090 -45.6270 71° East 519 597 37,000  Level FlightAware Transoceanic
Fri 12:08:00 AM 24.4548 -45.4768 72° East 519 597 37,000  Level FlightAware Transoceanic
Fri 12:09:00 AM 24.5004 -45.3266 72° East 519 597 37,000  Level FlightAware Transoceanic
Fri 12:10:00 AM 24.5702 -45.0965 72° East 521 600 37,000  Level FlightAware Transoceanic
Fri 12:11:00 AM 24.6147 -44.9483 72° East 521 600 37,000  Level FlightAware Transoceanic
Fri 12:12:00 AM 24.6590 -44.8001 72° East 521 600 37,000  Level FlightAware Transoceanic
Fri 12:13:00 AM 24.7033 -44.6517 72° East 521 600 37,000  Level FlightAware Transoceanic
Fri 12:14:00 AM 24.7474 -44.5032 72° East 521 600 37,000  Level FlightAware Transoceanic
Fri 12:15:00 AM 24.7913 -44.3546 72° East 521 600 37,000  Level FlightAware Transoceanic
Fri 12:16:00 AM 24.8351 -44.2059 72° East 521 600 37,000  Level FlightAware Transoceanic
Fri 12:17:00 AM 24.8787 -44.0571 72° East 521 600 37,000  Level FlightAware Transoceanic
Fri 12:18:00 AM 24.9222 -43.9082 72° East 521 600 37,000  Level FlightAware Transoceanic
Fri 12:19:00 AM 24.9656 -43.7592 72° East 521 600 37,000  Level FlightAware Transoceanic
Fri 12:20:00 AM 25.0088 -43.6101 72° East 521 600 37,000  Level FlightAware Transoceanic
Fri 12:21:00 AM 25.0518 -43.4608 72° East 521 600 37,000  Level FlightAware Transoceanic
Fri 12:22:00 AM 25.0947 -43.3115 72° East 521 600 37,000  Level FlightAware Transoceanic
Fri 12:23:00 AM 25.1375 -43.1621 72° East 521 600 37,000  Level FlightAware Transoceanic
Fri 12:24:00 AM 25.1801 -43.0125 73° East 521 600 37,000  Level FlightAware Transoceanic
Fri 12:24:45 AM 25.2333 -42.8167 73° East 549 632 37,000  Level New York Oceanic (ODAPS)
Fri 12:25:00 AM 25.2225 -42.8629 73° East 521 600 37,000  Level FlightAware Transoceanic
Fri 12:26:00 AM 25.2648 -42.7131 73° East 521 600 37,000  Level FlightAware Transoceanic
Fri 12:27:00 AM 25.3070 -42.5633 73° East 521 600 37,000  Level FlightAware Transoceanic
Fri 12:28:00 AM 25.3490 -42.4133 73° East 521 600 37,000  Level FlightAware Transoceanic
Fri 12:29:00 AM 25.3908 -42.2633 73° East 521 600 37,000  Level FlightAware Transoceanic
Fri 12:30:00 AM 25.4325 -42.1131 73° East 521 600 37,000  Level FlightAware Transoceanic
Fri 12:31:00 AM 25.5101 -41.8267 73° East 549 632 37,000  Level FlightAware Transoceanic
Fri 12:32:00 AM 25.5555 -41.6612 73° East 549 632 37,000  Level FlightAware Transoceanic
Fri 12:33:00 AM 25.6008 -41.4957 73° East 549 632 37,000  Level FlightAware Transoceanic
Fri 12:34:00 AM 25.6459 -41.3300 73° East 549 632 37,000  Level FlightAware Transoceanic
Fri 12:35:00 AM 25.6909 -41.1642 73° East 549 632 37,000  Level FlightAware Transoceanic
Fri 12:36:00 AM 25.7356 -40.9982 73° East 549 632 37,000  Level FlightAware Transoceanic
Fri 12:37:00 AM 25.7801 -40.8322 73° East 549 632 37,000  Level FlightAware Transoceanic
Fri 12:38:00 AM 25.8245 -40.6660 74° East 549 632 37,000  Level FlightAware Transoceanic
Fri 12:39:00 AM 25.8687 -40.4997 74° East 549 632 37,000  Level FlightAware Transoceanic
Fri 12:40:00 AM 25.9126 -40.3332 74° East 549 632 37,000  Level FlightAware Transoceanic
Fri 12:41:00 AM 25.9564 -40.1667 74° East 549 632 37,000  Level FlightAware Transoceanic
Fri 12:42:00 AM 26.0000 -40.0000 69° East 549 632 37,000  Level FlightAware Transoceanic
Fri 12:43:00 AM 26.0530 -39.8456 69° East 549 632 37,000  Level FlightAware Transoceanic
Fri 12:44:00 AM 26.1059 -39.6910 69° East 549 632 37,000  Level FlightAware Transoceanic
Fri 12:45:00 AM 26.1586 -39.5363 69° East 549 632 37,000  Level FlightAware Transoceanic
Fri 12:46:00 AM 26.2112 -39.3814 69° East 549 632 37,000  Level FlightAware Transoceanic
Fri 12:47:00 AM 26.2636 -39.2264 69° East 549 632 37,000  Level FlightAware Transoceanic
Fri 12:48:00 AM 26.3158 -39.0713 69° East 549 632 37,000  Level FlightAware Transoceanic
Fri 12:49:00 AM 26.3679 -38.9160 70° East 549 632 37,000  Level FlightAware Transoceanic
Fri 12:50:00 AM 26.4198 -38.7606 70° East 549 632 37,000  Level FlightAware Transoceanic
Fri 12:51:00 AM 26.4715 -38.6051 70° East 549 632 37,000  Level FlightAware Transoceanic
Fri 12:52:00 AM 26.5230 -38.4494 70° East 549 632 37,000  Level FlightAware Transoceanic
Fri 12:53:00 AM 26.5744 -38.2935 70° East 549 632 37,000  Level FlightAware Transoceanic
Fri 12:54:00 AM 26.6256 -38.1376 70° East 549 632 37,000  Level FlightAware Transoceanic
Fri 12:55:00 AM 26.6767 -37.9815 70° East 549 632 37,000  Level FlightAware Transoceanic
Fri 12:56:00 AM 26.7275 -37.8252 70° East 549 632 37,000  Level FlightAware Transoceanic
Fri 12:57:00 AM 26.7782 -37.6688 70° East 549 632 37,000  Level FlightAware Transoceanic
Fri 12:58:00 AM 26.8288 -37.5123 70° East 549 632 37,000  Level FlightAware Transoceanic
Fri 12:59:00 AM 26.8791 -37.3556 70° East 549 632 37,000  Level FlightAware Transoceanic
Fri 01:00:00 AM 26.9293 -37.1988 70° East 549 632 37,000  Level FlightAware Transoceanic
Fri 01:01:00 AM 26.9793 -37.0419 70° East 549 632 37,000  Level FlightAware Transoceanic
Fri 01:02:00 AM 27.0291 -36.8848 70° East 549 632 37,000  Level FlightAware Transoceanic
Fri 01:03:00 AM 27.0788 -36.7276 71° East 549 632 37,000  Level FlightAware Transoceanic
Fri 01:04:00 AM 27.1283 -36.5702 71° East 549 632 37,000  Level FlightAware Transoceanic
Fri 01:05:00 AM 27.1776 -36.4127 71° East 549 632 37,000  Level FlightAware Transoceanic
Fri 01:06:00 AM 27.2267 -36.2551 71° East 549 632 37,000  Level FlightAware Transoceanic
Fri 01:07:00 AM 27.2757 -36.0973 71° East 549 632 37,000  Level FlightAware Transoceanic
Fri 01:08:00 AM 27.3244 -35.9394 71° East 549 632 37,000  Level FlightAware Transoceanic
Fri 01:09:00 AM 27.3731 -35.7813 71° East 549 632 37,000  Level FlightAware Transoceanic
Fri 01:10:00 AM 27.4215 -35.6231 71° East 549 632 37,000  Level FlightAware Transoceanic
Fri 01:11:00 AM 27.4697 -35.4648 71° East 549 632 37,000  Level FlightAware Transoceanic
Fri 01:12:00 AM 27.5178 -35.3063 71° East 549 632 37,000  Level FlightAware Transoceanic
Fri 01:13:00 AM 27.5657 -35.1477 71° East 549 632 37,000  Level FlightAware Transoceanic
Fri 01:14:00 AM 27.6134 -34.9889 71° East 549 632 37,000  Level FlightAware Transoceanic
Fri 01:15:00 AM 27.6609 -34.8301 71° East 549 632 37,000  Level FlightAware Transoceanic
Fri 01:16:00 AM 27.7083 -34.6710 71° East 549 632 37,000  Level FlightAware Transoceanic
Fri 01:17:00 AM 27.7554 -34.5119 72° East 549 632 37,000  Level FlightAware Transoceanic
Fri 01:18:00 AM 27.8024 -34.3526 72° East 549 632 37,000  Level FlightAware Transoceanic
Fri 01:19:00 AM 27.8492 -34.1931 72° East 549 632 37,000  Level FlightAware Transoceanic
Fri 01:20:00 AM 27.8958 -34.0335 72° East 549 632 37,000  Level FlightAware Transoceanic
Fri 01:21:00 AM 27.9422 -33.8738 72° East 549 632 37,000  Level FlightAware Transoceanic
Fri 01:22:00 AM 27.9885 -33.7140 72° East 549 632 37,000  Level FlightAware Transoceanic
Fri 01:23:00 AM 28.0345 -33.5540 72° East 549 632 37,000  Level FlightAware Transoceanic
Fri 01:24:00 AM 28.0804 -33.3939 72° East 549 632 37,000  Level FlightAware Transoceanic
Fri 01:25:00 AM 28.1261 -33.2336 72° East 549 632 37,000  Level FlightAware Transoceanic
Fri 01:26:00 AM 28.1716 -33.0732 72° East 549 632 37,000  Level FlightAware Transoceanic
Fri 01:27:00 AM 28.2169 -32.9127 72° East 549 632 37,000  Level FlightAware Transoceanic
Fri 01:28:00 AM 28.2620 -32.7520 72° East 549 632 37,000  Level FlightAware Transoceanic
Fri 01:29:00 AM 28.3070 -32.5912 72° East 549 632 37,000  Level FlightAware Transoceanic
Fri 01:30:00 AM 28.3517 -32.4302 73° East 549 632 37,000  Level FlightAware Transoceanic
Fri 01:31:00 AM 28.3963 -32.2692 73° East 549 632 37,000  Level FlightAware Transoceanic
Fri 01:32:00 AM 28.4407 -32.1080 73° East 549 632 37,000  Level FlightAware Transoceanic
Fri 01:33:00 AM 28.4848 -31.9466 73° East 549 632 37,000  Level FlightAware Transoceanic
Fri 01:34:00 AM 28.5288 -31.7851 73° East 549 632 37,000  Level FlightAware Transoceanic
Fri 01:35:00 AM 28.5726 -31.6235 73° East 549 632 37,000  Level FlightAware Transoceanic
Fri 01:36:00 AM 28.6162 -31.4618 73° East 549 632 37,000  Level FlightAware Transoceanic
Fri 01:37:00 AM 28.6597 -31.2999 73° East 549 632 37,000  Level FlightAware Transoceanic
Fri 01:38:00 AM 28.7029 -31.1379 73° East 549 632 37,000  Level FlightAware Transoceanic
Fri 01:39:00 AM 28.7459 -30.9757 73° East 549 632 37,000  Level FlightAware Transoceanic
Fri 01:40:00 AM 28.7887 -30.8134 73° East 549 632 37,000  Level FlightAware Transoceanic
Fri 01:41:00 AM 28.8314 -30.6510 73° East 549 632 37,000  Level FlightAware Transoceanic
Fri 01:42:00 AM 28.8738 -30.4884 73° East 549 632 37,000  Level FlightAware Transoceanic
Fri 01:43:00 AM 28.9161 -30.3258 74° East 549 632 37,000  Level FlightAware Transoceanic
Fri 01:44:00 AM 28.9581 -30.1630 74° East 549 632 37,000 -8 Level FlightAware Transoceanic
Fri 01:45:00 AM 28.9978 -30.0087 74° East  Level FlightAware Approximate
Fri 01:46:00 AM 29.0371 -29.8543 74° East  Level FlightAware Approximate
Fri 01:47:00 AM 29.0678 -29.8802 57° Northeast  Level FlightAware Approximate
Fri 01:48:00 AM 29.1440 -29.7450 57° Northeast  Level FlightAware Approximate
Fri 01:49:00 AM 29.2202 -29.6096 57° Northeast  Level FlightAware Approximate
Fri 01:50:00 AM 29.2962 -29.4740 57° Northeast  Level FlightAware Approximate
Fri 01:51:00 AM 29.3720 -29.3381 57° Northeast  Level FlightAware Approximate
Fri 01:52:00 AM 29.4478 -29.2021 57° Northeast  Level FlightAware Approximate
Fri 01:53:00 AM 29.5233 -29.0659 57° Northeast  Level FlightAware Approximate
Fri 01:54:00 AM 29.5988 -28.9295 58° Northeast  Level FlightAware Approximate
Fri 01:55:00 AM 29.6741 -28.7928 58° Northeast  Level FlightAware Approximate
Fri 01:56:00 AM 29.7492 -28.6560 58° Northeast  Level FlightAware Approximate
Fri 01:57:00 AM 29.8242 -28.5189 58° Northeast  Level FlightAware Approximate
Fri 01:58:00 AM 29.8991 -28.3817 58° Northeast  Level FlightAware Approximate
Fri 01:59:00 AM 29.9739 -28.2442 58° Northeast  Level FlightAware Approximate
Fri 02:00:00 AM 30.0485 -28.1066 58° Northeast  Level FlightAware Approximate
Fri 02:01:00 AM 30.1229 -27.9687 58° Northeast  Level FlightAware Approximate
Fri 02:02:00 AM 30.1972 -27.8306 58° Northeast  Level FlightAware Approximate
Fri 02:03:00 AM 30.2714 -27.6923 58° Northeast  Level FlightAware Approximate
Fri 02:04:00 AM 30.3454 -27.5539 58° Northeast  Level FlightAware Approximate
Fri 02:05:00 AM 30.4193 -27.4151 58° Northeast  Level FlightAware Approximate
Fri 02:06:00 AM 30.4930 -27.2762 58° Northeast  Level FlightAware Approximate
Fri 02:07:00 AM 30.5666 -27.1371 58° Northeast  Level FlightAware Approximate
Fri 02:08:00 AM 30.6400 -26.9978 58° Northeast  Level FlightAware Approximate
Fri 02:09:00 AM 30.7133 -26.8582 59° Northeast  Level FlightAware Approximate
Fri 02:10:00 AM 30.7864 -26.7185 59° Northeast  Level FlightAware Approximate
Fri 02:11:00 AM 30.8594 -26.5785 59° Northeast  Level FlightAware Approximate
Fri 02:12:00 AM 30.9322 -26.4383 59° Northeast  Level FlightAware Approximate
Fri 02:13:00 AM 31.0049 -26.2979 59° Northeast  Level FlightAware Approximate
Fri 02:14:00 AM 31.0774 -26.1573 59° Northeast  Level FlightAware Approximate
Fri 02:15:00 AM 31.1498 -26.0165 59° Northeast  Level FlightAware Approximate
Fri 02:16:00 AM 31.2220 -25.8754 59° Northeast  Level FlightAware Approximate
Fri 02:17:00 AM 31.2941 -25.7342 59° Northeast  Level FlightAware Approximate
Fri 02:18:00 AM 31.3660 -25.5927 59° Northeast  Level FlightAware Approximate
Fri 02:19:00 AM 31.4378 -25.4510 59° Northeast  Level FlightAware Approximate
Fri 02:20:00 AM 31.5094 -25.3091 59° Northeast  Level FlightAware Approximate
Fri 02:21:00 AM 31.5808 -25.1670 59° Northeast  Level FlightAware Approximate
Fri 02:22:00 AM 31.6521 -25.0247 60° Northeast  Level FlightAware Approximate
Fri 02:23:00 AM 31.7232 -24.8821 60° Northeast  Level FlightAware Approximate
Fri 02:24:00 AM 31.7942 -24.7393 60° Northeast  Level FlightAware Approximate
Fri 02:25:00 AM 31.8650 -24.5963 60° Northeast  Level FlightAware Approximate
Fri 02:26:00 AM 31.9357 -24.4531 60° Northeast  Level FlightAware Approximate
Fri 02:27:00 AM 32.0062 -24.3097 60° Northeast  Level FlightAware Approximate
Fri 02:28:00 AM 32.0765 -24.1660 60° Northeast  Level FlightAware Approximate
Fri 02:29:00 AM 32.1466 -24.0221 60° Northeast  Level FlightAware Approximate
Fri 02:30:00 AM 32.2166 -23.8780 60° Northeast  Level FlightAware Approximate
Fri 02:31:00 AM 32.2865 -23.7337 60° Northeast  Level FlightAware Approximate
Fri 02:32:00 AM 32.3562 -23.5891 60° Northeast  Level FlightAware Approximate
Fri 02:33:00 AM 32.4257 -23.4444 60° Northeast  Level FlightAware Approximate
Fri 02:34:00 AM 32.4950 -23.2994 60° Northeast  Level FlightAware Approximate
Fri 02:35:00 AM 32.5642 -23.1542 60° Northeast  Level FlightAware Approximate
Fri 02:36:00 AM 32.6332 -23.0087 61° Northeast  Level FlightAware Approximate
Fri 02:37:00 AM 32.7020 -22.8631 61° Northeast  Level FlightAware Approximate
Fri 02:38:00 AM 32.7707 -22.7172 61° Northeast  Level FlightAware Approximate
Fri 02:39:00 AM 32.8392 -22.5711 61° Northeast  Level FlightAware Approximate
Fri 02:40:00 AM 32.9075 -22.4247 61° Northeast  Level FlightAware Approximate
Fri 02:41:00 AM 32.9757 -22.2782 61° Northeast  Level FlightAware Approximate
Fri 02:42:00 AM 33.0437 -22.1314 61° Northeast  Level FlightAware Approximate
Fri 02:43:00 AM 33.1115 -21.9844 61° Northeast  Level FlightAware Approximate
Fri 02:44:00 AM 33.1792 -21.8371 61° Northeast  Level FlightAware Approximate
Fri 02:45:00 AM 33.2466 -21.6897 61° Northeast  Level FlightAware Approximate
Fri 02:46:00 AM 33.3139 -21.5420 61° Northeast  Level FlightAware Approximate
Fri 02:47:00 AM 33.3811 -21.3941 61° Northeast  Level FlightAware Approximate
Fri 02:48:00 AM 33.4480 -21.2459 62° Northeast  Level FlightAware Approximate
Fri 02:49:00 AM 33.5148 -21.0975 62° Northeast  Level FlightAware Approximate
Fri 02:50:00 AM 33.5814 -20.9489 62° Northeast  Level FlightAware Approximate
Fri 02:51:00 AM 33.6478 -20.8001 62° Northeast  Level FlightAware Approximate
Fri 02:52:00 AM 33.7140 -20.6510 62° Northeast  Level FlightAware Approximate
Fri 02:53:00 AM 33.7801 -20.5017 62° Northeast  Level FlightAware Approximate
Fri 02:54:00 AM 33.8460 -20.3522 62° Northeast  Level FlightAware Approximate
Fri 02:55:00 AM 33.9117 -20.2024 62° Northeast  Level FlightAware Approximate
Fri 02:56:00 AM 33.9772 -20.0524 62° Northeast  Level FlightAware Approximate
Fri 02:57:00 AM 34.0418 -19.9018 63° Northeast  Level FlightAware Approximate
Fri 02:58:00 AM 34.1058 -19.7506 63° Northeast  Level FlightAware Approximate
Fri 02:59:00 AM 34.1696 -19.5992 63° Northeast  Level FlightAware Approximate
Fri 03:00:00 AM 34.2332 -19.4476 63° Northeast  Level FlightAware Approximate
Fri 03:01:00 AM 34.2967 -19.2957 63° Northeast  Level FlightAware Approximate
Fri 03:02:00 AM 34.3600 -19.1437 63° Northeast  Level FlightAware Approximate
Fri 03:03:00 AM 34.4230 -18.9914 63° Northeast  Level FlightAware Approximate
Fri 03:04:00 AM 34.4859 -18.8388 63° Northeast  Level FlightAware Approximate
Fri 03:05:00 AM 34.5486 -18.6861 63° Northeast  Level FlightAware Approximate
Fri 03:06:00 AM 34.6111 -18.5331 64° Northeast  Level FlightAware Approximate
Fri 03:07:00 AM 34.6735 -18.3798 64° Northeast  Level FlightAware Approximate
Fri 03:08:00 AM 34.7356 -18.2264 64° Northeast  Level FlightAware Approximate
Fri 03:09:00 AM 34.7975 -18.0727 64° Northeast  Level FlightAware Approximate
Fri 03:10:00 AM 34.8592 -17.9188 64° Northeast  Level FlightAware Approximate
Fri 03:11:00 AM 34.9208 -17.7646 64° Northeast  Level FlightAware Approximate
Fri 03:12:00 AM 34.9821 -17.6102 64° Northeast  Level FlightAware Approximate
Fri 03:13:00 AM 35.0433 -17.4556 64° Northeast  Level FlightAware Approximate
Fri 03:14:00 AM 35.1042 -17.3008 64° Northeast  Level FlightAware Approximate
Fri 03:15:00 AM 35.1650 -17.1457 64° Northeast  Level FlightAware Approximate
Fri 03:16:00 AM 35.2256 -16.9904 64° Northeast  Level FlightAware Approximate
Fri 03:17:00 AM 35.2859 -16.8349 65° Northeast  Level FlightAware Approximate
Fri 03:18:00 AM 35.3461 -16.6791 65° Northeast  Level FlightAware Approximate
Fri 03:19:00 AM 35.4060 -16.5231 65° Northeast  Level FlightAware Approximate
Fri 03:20:00 AM 35.4658 -16.3669 65° Northeast  Level FlightAware Approximate
Fri 03:21:00 AM 35.5270 -16.2115 60° Northeast  Level FlightAware Approximate
Fri 03:22:00 AM 35.5973 -16.0618 60° Northeast  Level FlightAware Approximate
Fri 03:23:00 AM 35.6674 -15.9118 60° Northeast  Level FlightAware Approximate
Fri 03:24:00 AM 35.7373 -15.7616 60° Northeast  Level FlightAware Approximate
Fri 03:25:00 AM 35.8071 -15.6111 60° Northeast  Level FlightAware Approximate
Fri 03:26:00 AM 35.8767 -15.4603 60° Northeast  Level FlightAware Approximate
Fri 03:27:00 AM 35.9460 -15.3093 60° Northeast  Level FlightAware Approximate
Fri 03:28:00 AM 36.0152 -15.1580 60° Northeast  Level FlightAware Approximate
Fri 03:29:00 AM 36.0842 -15.0065 61° Northeast  Level FlightAware Approximate
Fri 03:30:00 AM 36.1530 -14.8546 61° Northeast  Level FlightAware Approximate
Fri 03:31:00 AM 36.2217 -14.7026 61° Northeast  Level FlightAware Approximate
Fri 03:32:00 AM 36.2901 -14.5502 61° Northeast  Level FlightAware Approximate
Fri 03:33:00 AM 36.3583 -14.3976 61° Northeast  Level FlightAware Approximate
Fri 03:34:00 AM 36.4263 -14.2447 61° Northeast  Level FlightAware Approximate
Fri 03:35:00 AM 36.4942 -14.0915 61° Northeast  Level FlightAware Approximate
Fri 03:36:00 AM 36.5618 -13.9381 61° Northeast  Level FlightAware Approximate
Fri 03:37:00 AM 36.6293 -13.7844 61° Northeast  Level FlightAware Approximate
Fri 03:38:00 AM 36.6965 -13.6305 61° Northeast  Level FlightAware Approximate
Fri 03:39:00 AM 36.7636 -13.4762 61° Northeast  Level FlightAware Approximate
Fri 03:40:00 AM 36.8304 -13.3217 62° Northeast  Level FlightAware Approximate
Fri 03:41:00 AM 36.8971 -13.1670 62° Northeast  Level FlightAware Approximate
Fri 03:42:00 AM 36.9635 -13.0119 62° Northeast  Level FlightAware Approximate
Fri 03:43:00 AM 37.0298 -12.8566 62° Northeast  Level FlightAware Approximate
Fri 03:44:00 AM 37.0958 -12.7010 62° Northeast  Level FlightAware Approximate
Fri 03:45:00 AM 37.1617 -12.5452 62° Northeast  Level FlightAware Approximate
Fri 03:46:00 AM 37.2280 -12.3896 62° Northeast  Level FlightAware Approximate
Fri 03:47:00 AM 37.2941 -12.2336 62° Northeast  Level FlightAware Approximate
Fri 03:47:57 AM 37.9290 -10.8010 62° Northeast 569 655 36,000  Level FlightAware ADS-B
Fri 03:48:00 AM 37.3601 -12.0775 62° Northeast  Level FlightAware Approximate
Fri 03:48:47 AM 37.9940 -10.6600 60° Northeast 569 655 36,000  Level FlightAware ADS-B
Fri 03:49:32 AM 38.0550 -10.5240 60° Northeast 568 654 36,000  Level FlightAware ADS-B
Fri 03:50:32 AM 38.1270 -10.3650 60° Northeast 567 652 36,000  Level FlightAware ADS-B
Fri 03:51:12 AM 38.1780 -10.2520 60° Northeast 568 654 36,000  Level FlightAware ADS-B
Fri 03:51:47 AM 38.2270 -10.1410 61° Northeast 569 655 36,000  Level FlightAware ADS-B
Fri 03:52:37 AM 38.2930 -9.9940 60° Northeast 568 654 36,000  Level FlightAware ADS-B
Fri 03:53:22 AM 38.3500 -9.8640 61° Northeast 569 655 36,000  Level FlightAware ADS-B
Fri 03:54:02 AM 38.3980 -9.7550 61° Northeast 568 654 36,000  Level FlightAware ADS-B
Fri 03:54:42 AM 38.4540 -9.6300 60° Northeast 569 655 36,000  Level FlightAware ADS-B
Fri 03:55:27 AM 38.5070 -9.5070 61° Northeast 570 656 36,000  Level FlightAware ADS-B
Fri 03:56:07 AM 38.5650 -9.3750 61° Northeast 572 658 36,000  Level FlightAware ADS-B
Fri 03:56:47 AM 38.6130 -9.2650 61° Northeast 571 657 36,000  Level FlightAware ADS-B
Fri 03:57:27 AM 38.6620 -9.1530 61° Northeast 571 657 36,000  Level FlightAware ADS-B
Fri 03:58:07 AM 38.7120 -9.0350 61° Northeast 570 656 36,000  Level FlightAware ADS-B
Fri 03:58:47 AM 38.7640 -8.9150 61° Northeast 570 656 36,000  Level FlightAware ADS-B
Fri 03:59:37 AM 38.8290 -8.7650 61° Northeast 568 654 36,000  Level FlightAware ADS-B
Fri 04:00:22 AM 38.8840 -8.6350 61° Northeast 569 655 36,000  Level FlightAware ADS-B
Fri 04:01:02 AM 38.9360 -8.5140 61° Northeast 570 656 36,000  Level FlightAware ADS-B
Fri 04:01:42 AM 38.9870 -8.3920 62° Northeast 569 655 36,000  Level FlightAware ADS-B
Fri 04:02:27 AM 39.0420 -8.2610 62° Northeast 564 649 36,000  Level FlightAware ADS-B
Fri 04:03:07 AM 39.0930 -8.1410 61° Northeast 562 647 36,000  Level FlightAware ADS-B
Fri 04:03:52 AM 39.1480 -8.0100 62° Northeast 562 647 36,000  Level FlightAware ADS-B
Fri 04:04:32 AM 39.1980 -7.8880 62° Northeast 561 646 36,000  Level FlightAware ADS-B
Fri 04:05:12 AM 39.2460 -7.7720 62° Northeast 560 644 36,000  Level FlightAware ADS-B
Fri 04:05:57 AM 39.3010 -7.6400 62° Northeast 559 643 36,000  Level FlightAware ADS-B
Fri 04:06:37 AM 39.3510 -7.5180 62° Northeast 559 643 36,000  Level FlightAware ADS-B
Fri 04:07:22 AM 39.4050 -7.3870 62° Northeast 561 646 36,000  Level FlightAware ADS-B
Fri 04:08:02 AM 39.4540 -7.2650 62° Northeast 560 644 36,000  Level FlightAware ADS-B
Fri 04:08:42 AM 39.5020 -7.1490 62° Northeast 560 644 36,000  Level FlightAware ADS-B
Fri 04:09:27 AM 39.5570 -7.0120 62° Northeast 562 647 36,000  Level FlightAware ADS-B
Fri 04:10:07 AM 39.6030 -6.8970 63° Northeast 564 649 36,000  Level FlightAware ADS-B
Fri 04:10:47 AM 39.6520 -6.7760 62° Northeast 566 651 36,000 -212 Level FlightAware ADS-B
Fri 04:11:32 AM 39.7060 -6.6400 63° Northeast 551 634 35,700 -635 Descending FlightAware ADS-B
Fri 04:12:12 AM 39.7530 -6.5200 63° Northeast 551 634 35,100 -988 Descending FlightAware ADS-B
Fri 04:12:57 AM 39.7920 -6.3760 71° East 558 642 34,300 -988 Descending FlightAware ADS-B
Fri 04:13:37 AM 39.8140 -6.2480 77° East 563 648 33,700 -918 Descending FlightAware ADS-B
Fri 04:14:22 AM 39.8290 -6.0950 83° East 558 642 33,000 -635 Descending FlightAware ADS-B
Fri 04:15:02 AM 39.8400 -5.9680 84° East 530 610 32,800 -1,425 Descending FlightAware ADS-B
Fri 04:15:42 AM 39.8510 -5.8410 84° East 542 624 31,100 -2,250 Descending FlightAware ADS-B
Fri 04:16:22 AM 39.8620 -5.7120 84° East 540 621 29,800 -1,765 Descending FlightAware ADS-B
Fri 04:17:07 AM 39.8740 -5.5680 84° East 527 606 28,600 -1,694 Descending FlightAware ADS-B
Fri 04:17:47 AM 39.8840 -5.4450 84° East 510 587 27,400 -1,765 Descending FlightAware ADS-B
Fri 04:18:32 AM 39.8950 -5.3120 84° East 490 564 26,100 -1,694 Descending FlightAware ADS-B
Fri 04:19:12 AM 39.9040 -5.1960 84° East 490 564 25,000 -1,624 Descending FlightAware ADS-B
Fri 04:19:57 AM 39.9150 -5.0620 84° East 483 556 23,800 -1,624 Descending FlightAware ADS-B
Fri 04:20:37 AM 39.9240 -4.9490 84° East 473 544 22,700 -1,575 Descending FlightAware ADS-B
Fri 04:21:17 AM 39.9320 -4.8400 84° East 462 532 21,700 -1,341 Descending FlightAware ADS-B
Fri 04:22:02 AM 39.9420 -4.7160 84° East 442 509 20,800 -1,200 Descending FlightAware ADS-B
Fri 04:22:42 AM 39.9500 -4.6140 84° East 414 476 20,000 -1,275 Descending FlightAware ADS-B
Fri 04:23:22 AM 39.9560 -4.5230 85° East 401 461 19,100 -1,271 Descending FlightAware ADS-B
Fri 04:24:07 AM 39.9650 -4.4100 84° East 392 451 18,200 -1,271 Descending FlightAware ADS-B
Fri 04:24:47 AM 39.9570 -4.3190 97° East 376 433 17,300 -1,271 Descending FlightAware ADS-B
Fri 04:25:32 AM 39.9120 -4.2460 129° Southeast 352 405 16,400 -988 Descending FlightAware ADS-B
Fri 04:26:12 AM 39.8720 -4.1820 129° Southeast 322 371 15,900 -988 Descending FlightAware ADS-B
Fri 04:26:57 AM 39.8300 -4.1150 129° Southeast 313 360 15,000 -1,271 Descending FlightAware ADS-B
Fri 04:27:37 AM 39.7990 -4.0510 122° Southeast 316 364 14,100 -1,350 Descending FlightAware ADS-B
Fri 04:28:17 AM 39.8200 -3.9840 68° East 293 337 13,200 -1,725 Descending FlightAware ADS-B
Fri 04:28:57 AM 39.8580 -3.9340 45° Northeast 315 362 11,800 -1,624 Descending FlightAware ADS-B
Fri 04:29:42 AM 39.9020 -3.8680 49° Northeast 316 364 10,900 -1,412 Descending FlightAware ADS-B
Fri 04:30:22 AM 39.9390 -3.8120 49° Northeast 313 360 9,800 -1,636 Descending FlightAware ADS-B
Fri 04:30:37 AM 39.9530 -3.7910 49° Northeast 312 359 9,400 -1,600 Descending FlightAware ADS-B
Fri 04:31:07 AM 39.9820 -3.7470 49° Northeast 301 346 8,600 -1,527 Descending FlightAware ADS-B
Fri 04:31:32 AM 40.0040 -3.7140 49° Northeast 297 342 8,000 -1,309 Descending FlightAware ADS-B
Fri 04:32:02 AM 40.0310 -3.6740 49° Northeast 291 335 7,400 -1,300 Descending FlightAware ADS-B
Fri 04:32:32 AM 40.0570 -3.6340 50° Northeast 288 331 6,700 -1,091 Descending FlightAware ADS-B
Fri 04:32:57 AM 40.0790 -3.6020 48° Northeast 274 315 6,400 -545 Descending FlightAware ADS-B
Fri 04:33:27 AM 40.1040 -3.5660 48° Northeast 257 296 6,200 -545 Descending FlightAware ADS-B
Fri 04:33:52 AM 40.1220 -3.5380 50° Northeast 249 287 5,900 -873 Descending FlightAware ADS-B
Fri 04:34:22 AM 40.1450 -3.5050 48° Northeast 243 280 5,400 -1,067 Descending FlightAware ADS-B
Fri 04:34:37 AM 40.1570 -3.4880 47° Northeast 241 277 5,100 -750 Descending FlightAware ADS-B
Fri 04:35:02 AM 40.1750 -3.4610 49° Northeast 237 273 4,900 -327 Descending FlightAware ADS-B
Fri 04:35:32 AM 40.1970 -3.4300 47° Northeast 239 275 4,800 -133 Descending FlightAware ADS-B
Fri 04:35:47 AM 40.2100 -3.4150 41° Northeast 237 273 4,800  Level FlightAware ADS-B
Fri 04:35:57 AM 40.2210 -3.4120 12° North 235 270 4,800 -300 Level FlightAware ADS-B
Fri 04:36:27 AM 40.2520 -3.4110 North 235 270 4,600 -400 Descending FlightAware ADS-B
Fri 04:36:57 AM 40.2860 -3.4120 359° North 226 260 4,400 -327 Descending FlightAware ADS-B
Fri 04:37:22 AM 40.3070 -3.4130 358° North 216 249 4,300 -300 Descending FlightAware ADS-B
Fri 04:37:37 AM 40.3260 -3.4160 353° North 216 249 4,200 -400 Descending FlightAware ADS-B
Fri 04:37:52 AM 40.3360 -3.4250 326° Northwest 198 228 4,100 -200 Descending FlightAware ADS-B
Fri 04:38:07 AM 40.3480 -3.4370 323° Northwest 196 226 4,100 -150 Level FlightAware ADS-B
Fri 04:38:32 AM 40.3650 -3.4540 323° Northwest 196 226 4,000 -436 Descending FlightAware ADS-B
Fri 04:39:02 AM 40.3860 -3.4760 321° Northwest 172 198 3,700 -764 Descending FlightAware ADS-B
Fri 04:39:27 AM 40.4010 -3.4910 323° Northwest 162 186 3,300 -873 Descending FlightAware ADS-B
Fri 04:39:57 AM 40.4190 -3.5090 323° Northwest 159 183 2,900 -900 Descending FlightAware ADS-B
Fri 04:40:27 AM 40.4360 -3.5260 323° Northwest 153 176 2,400 -873 Descending FlightAware ADS-B
Fri 04:40:52 AM 40.4490 -3.5390 323° Northwest 153 176 2,100 -764 Descending FlightAware ADS-B
Fri 04:41:22 AM 40.4660 -3.5570 321° Northwest 156 180 1,700 -800 Descending FlightAware ADS-B

Login

Don't have an account? Register now (free) for customized features, flight alerts, and more!